Time;durP1;ratioP1;P1;durP2;ratioP2;P2;SDS_P1;SDS_P2;PMS_P1;PMS_P2;Temp;Humidity;BMP_temperature;BMP_pressure;BME280_temperature;BME280_humidity;BME280_pressure;Samples;Min_cycle;Max_cycle;Signal;HPM_P1;HPM_P2
2022/09/14 00:01:24;;;;;;;;;;;21.00;87.40;;;;;;6339959;22;19939;-92
2022/09/14 00:03:51;;;;;;;;;;;21.00;87.30;;;;;;6339844;22;19933;-92
2022/09/14 00:06:17;;;;;;;;;;;21.00;87.30;;;;;;6339912;22;19940;-93
2022/09/14 00:08:43;;;;;;;;;;;20.90;87.30;;;;;;6339600;22;19935;-92
2022/09/14 00:11:10;;;;;;;;;;;20.90;87.10;;;;;;6339661;22;20315;-92
2022/09/14 00:13:36;;;;;;;;;;;20.90;87.20;;;;;;6339766;22;19937;-92
2022/09/14 00:16:06;;;;;;;;;;;20.90;87.20;;;;;;6339783;22;19964;-92
2022/09/14 00:18:32;;;;;;;;;;;20.90;87.00;;;;;;6339727;22;19954;-92
2022/09/14 00:21:02;;;;;;;;;;;20.90;86.90;;;;;;6339801;22;19936;-92
2022/09/14 00:23:27;;;;;;;;;;;20.90;86.90;;;;;;6339835;22;19935;-92
2022/09/14 00:25:53;;;;;;;;;;;20.80;87.10;;;;;;6339773;22;19990;-92
2022/09/14 00:28:19;;;;;;;;;;;20.80;87.30;;;;;;6339268;22;20356;-91
2022/09/14 00:30:45;;;;;;;;;;;20.70;87.80;;;;;;6339716;22;20242;-92
2022/09/14 00:33:11;;;;;;;;;;;20.70;87.90;;;;;;6339822;22;19939;-92
2022/09/14 00:35:37;;;;;;;;;;;20.60;88.10;;;;;;6339114;22;20316;-92
2022/09/14 00:38:02;;;;;;;;;;;20.60;88.30;;;;;;6339626;22;19953;-92
2022/09/14 00:40:28;;;;;;;;;;;20.60;88.30;;;;;;6339796;22;19961;-92
2022/09/14 00:42:53;;;;;;;;;;;20.60;88.40;;;;;;6339774;22;20312;-92
2022/09/14 00:45:20;;;;;;;;;;;20.60;88.50;;;;;;6339349;22;20459;-92
2022/09/14 00:47:46;;;;;;;;;;;20.60;88.50;;;;;;6339422;22;20355;-92
2022/09/14 00:50:12;;;;;;;;;;;20.60;88.40;;;;;;6339361;22;20014;-92
2022/09/14 00:52:40;;;;;;;;;;;20.60;88.40;;;;;;6339508;22;19950;-92
2022/09/14 00:55:11;;;;;;;;;;;20.60;88.30;;;;;;6338656;22;19997;-92
2022/09/14 00:57:39;;;;;;;;;;;20.60;88.40;;;;;;6339316;22;19957;-92
2022/09/14 01:00:06;;;;;;;;;;;20.60;88.40;;;;;;6339439;22;19965;-91
2022/09/14 01:02:32;;;;;;;;;;;20.60;88.50;;;;;;6339476;22;19937;-92
2022/09/14 01:04:58;;;;;;;;;;;20.60;88.60;;;;;;6311505;22;19943;-91
2022/09/14 01:07:38;;;;;;;;;;;20.60;88.50;;;;;;6339472;22;19930;-92
2022/09/14 01:10:13;;;;;;;;;;;20.60;88.40;;;;;;6339291;22;19939;-92
2022/09/14 01:12:57;;;;;;;;;;;20.60;88.30;;;;;;6339664;22;19929;-92
2022/09/14 01:15:32;;;;;;;;;;;20.60;88.40;;;;;;6339284;22;19936;-92
2022/09/14 01:18:24;;;;;;;;;;;20.50;88.50;;;;;;6339042;22;20006;-92
2022/09/14 01:20:54;;;;;;;;;;;20.50;88.50;;;;;;6279868;22;19945;-92
2022/09/14 01:23:19;;;;;;;;;;;20.50;88.50;;;;;;6339155;22;19933;-92
2022/09/14 01:25:59;;;;;;;;;;;20.50;88.50;;;;;;6339579;22;20367;-92
2022/09/14 01:28:31;;;;;;;;;;;20.50;88.50;;;;;;6339247;22;19931;-92
2022/09/14 01:30:59;;;;;;;;;;;20.40;88.00;;;;;;6339192;22;20408;-92
2022/09/14 01:33:29;;;;;;;;;;;20.50;88.30;;;;;;6338859;22;19944;-92
2022/09/14 01:35:57;;;;;;;;;;;20.40;88.40;;;;;;6339140;22;19934;-92
2022/09/14 01:38:37;;;;;;;;;;;20.40;88.60;;;;;;6339220;22;19945;-91
2022/09/14 01:41:05;;;;;;;;;;;20.40;88.70;;;;;;6339009;22;19949;-92
2022/09/14 01:43:37;;;;;;;;;;;20.30;88.70;;;;;;6339121;22;19981;-92
2022/09/14 01:46:08;;;;;;;;;;;20.30;88.80;;;;;;6338914;22;19928;-92
2022/09/14 01:48:52;;;;;;;;;;;20.30;88.70;;;;;;6338379;22;19929;-92
2022/09/14 01:51:19;;;;;;;;;;;20.30;88.60;;;;;;6339035;22;20394;-91
2022/09/14 01:53:57;;;;;;;;;;;20.30;88.60;;;;;;6338842;22;20319;-92
2022/09/14 01:56:24;;;;;;;;;;;20.30;88.80;;;;;;6338863;22;19957;-92
2022/09/14 01:58:59;;;;;;;;;;;20.20;89.10;;;;;;6338863;22;19946;-92
2022/09/14 02:01:29;;;;;;;;;;;20.20;89.30;;;;;;6339149;22;20012;-92
2022/09/14 02:03:56;;;;;;;;;;;20.20;89.30;;;;;;6338700;22;19941;-92
2022/09/14 02:06:42;;;;;;;;;;;20.10;89.60;;;;;;6338836;22;19944;-91
2022/09/14 02:09:10;;;;;;;;;;;20.00;88.70;;;;;;6338963;22;19932;-92
2022/09/14 02:11:36;;;;;;;;;;;19.90;88.20;;;;;;6339007;22;20014;-91
2022/09/14 02:14:02;;;;;;;;;;;19.90;88.20;;;;;;6311605;22;20260;-92
2022/09/14 02:16:28;;;;;;;;;;;19.80;88.40;;;;;;6338911;22;20011;-92
2022/09/14 02:18:53;;;;;;;;;;;19.80;88.60;;;;;;6338714;22;19933;-91
2022/09/14 02:21:21;;;;;;;;;;;19.70;88.90;;;;;;6338967;22;20372;-92
2022/09/14 02:23:48;;;;;;;;;;;19.70;89.20;;;;;;6339231;22;19945;-92
2022/09/14 02:26:14;;;;;;;;;;;19.70;89.70;;;;;;6338920;22;19942;-92
2022/09/14 02:28:40;;;;;;;;;;;19.80;89.70;;;;;;6338666;22;19942;-92
2022/09/14 02:31:11;;;;;;;;;;;19.80;89.80;;;;;;6338761;22;20434;-92
2022/09/14 02:34:03;;;;;;;;;;;19.80;89.70;;;;;;6338648;22;19960;-91
2022/09/14 02:36:41;;;;;;;;;;;19.80;89.60;;;;;;6279437;22;19965;-91
2022/09/14 02:39:16;;;;;;;;;;;19.80;89.90;;;;;;6310953;22;19939;-91
2022/09/14 02:41:47;;;;;;;;;;;19.80;90.40;;;;;;6338862;22;19937;-91
2022/09/14 02:44:26;;;;;;;;;;;19.80;90.50;;;;;;6338644;22;19969;-92
2022/09/14 02:46:52;;;;;;;;;;;19.80;90.10;;;;;;6338742;22;19968;-92
2022/09/14 02:49:24;;;;;;;;;;;19.80;90.10;;;;;;6338698;22;19929;-91
2022/09/14 02:51:49;;;;;;;;;;;19.80;89.90;;;;;;6338572;22;19962;-91
2022/09/14 02:54:17;;;;;;;;;;;19.70;90.00;;;;;;6338562;22;19968;-91
2022/09/14 02:56:43;;;;;;;;;;;19.70;90.10;;;;;;6338546;22;19955;-91
2022/09/14 02:59:09;;;;;;;;;;;19.70;89.90;;;;;;6339506;22;19949;-92
2022/09/14 03:01:35;;;;;;;;;;;19.70;90.00;;;;;;6312756;22;19938;-91
2022/09/14 03:04:00;;;;;;;;;;;19.80;90.50;;;;;;6340087;22;19933;-92
2022/09/14 03:06:26;;;;;;;;;;;19.80;90.60;;;;;;6340381;22;19968;-91
2022/09/14 03:08:51;;;;;;;;;;;19.80;90.60;;;;;;6340291;22;19943;-91
2022/09/14 03:11:17;;;;;;;;;;;19.80;90.60;;;;;;6340592;22;20009;-92
2022/09/14 03:13:43;;;;;;;;;;;19.70;90.50;;;;;;6340447;22;19943;-92
2022/09/14 03:16:10;;;;;;;;;;;19.60;90.00;;;;;;6340498;22;19950;-91
2022/09/14 03:18:36;;;;;;;;;;;19.40;89.70;;;;;;6340062;22;19934;-91
2022/09/14 03:21:06;;;;;;;;;;;19.40;89.70;;;;;;6340188;22;20011;-92
2022/09/14 03:23:39;;;;;;;;;;;19.40;89.70;;;;;;6340099;22;19936;-92
2022/09/14 03:26:23;;;;;;;;;;;19.30;90.10;;;;;;6340249;22;20407;-92
2022/09/14 03:28:49;;;;;;;;;;;19.40;90.30;;;;;;6340477;22;20017;-92
2022/09/14 03:31:16;;;;;;;;;;;19.50;90.40;;;;;;6340148;22;19932;-91
2022/09/14 03:33:41;;;;;;;;;;;19.50;90.60;;;;;;6340071;22;19931;-92
2022/09/14 03:36:10;;;;;;;;;;;19.50;90.80;;;;;;6339965;22;19956;-92
2022/09/14 03:38:36;;;;;;;;;;;19.40;90.90;;;;;;6340076;22;19965;-91
2022/09/14 03:41:06;;;;;;;;;;;19.40;90.60;;;;;;6340048;22;19939;-91
2022/09/14 03:43:32;;;;;;;;;;;19.40;90.70;;;;;;6340083;22;19944;-91
2022/09/14 03:46:03;;;;;;;;;;;19.50;90.60;;;;;;6340242;22;19945;-91
2022/09/14 03:48:28;;;;;;;;;;;19.40;90.70;;;;;;6339875;22;19942;-91
2022/09/14 03:50:54;;;;;;;;;;;19.40;90.50;;;;;;6339751;22;20472;-91
2022/09/14 03:53:19;;;;;;;;;;;19.40;90.50;;;;;;6339964;22;19936;-91
2022/09/14 03:55:45;;;;;;;;;;;19.40;90.50;;;;;;6339545;22;19970;-91
2022/09/14 03:58:10;;;;;;;;;;;19.30;90.70;;;;;;6339658;22;20039;-91
2022/09/14 04:00:38;;;;;;;;;;;19.20;90.10;;;;;;6339905;22;19976;-91
2022/09/14 04:03:04;;;;;;;;;;;19.20;90.70;;;;;;6339612;22;19942;-92
2022/09/14 04:05:29;;;;;;;;;;;19.20;92.10;;;;;;6339734;22;19934;-92
2022/09/14 04:07:55;;;;;;;;;;;19.20;91.80;;;;;;6339746;22;19942;-92
2022/09/14 04:10:20;;;;;;;;;;;19.20;91.90;;;;;;6339254;22;20013;-92
2022/09/14 04:12:46;;;;;;;;;;;19.30;91.90;;;;;;6339957;22;19932;-92
2022/09/14 04:15:11;;;;;;;;;;;19.30;92.10;;;;;;6339948;22;19978;-92
2022/09/14 04:17:39;;;;;;;;;;;19.30;92.20;;;;;;6339565;22;20356;-92
2022/09/14 04:20:05;;;;;;;;;;;19.30;92.10;;;;;;6312481;22;19942;-92
2022/09/14 04:22:30;;;;;;;;;;;19.40;91.90;;;;;;6339628;22;20319;-91
2022/09/14 04:24:56;;;;;;;;;;;19.40;91.50;;;;;;6339741;22;19998;-92
2022/09/14 04:27:22;;;;;;;;;;;19.40;90.90;;;;;;6339507;22;19984;-91
2022/09/14 04:29:48;;;;;;;;;;;19.40;90.80;;;;;;6339565;22;19931;-92
2022/09/14 04:32:14;;;;;;;;;;;19.30;90.50;;;;;;6339696;22;19993;-91
2022/09/14 04:34:40;;;;;;;;;;;19.20;90.40;;;;;;6339437;22;20107;-91
2022/09/14 04:37:05;;;;;;;;;;;19.30;90.50;;;;;;6339455;22;19978;-92
2022/09/14 04:39:31;;;;;;;;;;;19.20;90.40;;;;;;6339438;22;20386;-92
2022/09/14 04:41:56;;;;;;;;;;;19.30;90.40;;;;;;6339391;22;19932;-91
2022/09/14 04:44:22;;;;;;;;;;;19.20;90.60;;;;;;6338857;22;19930;-92
2022/09/14 04:46:48;;;;;;;;;;;19.10;91.20;;;;;;6339653;22;19967;-92
2022/09/14 04:49:20;;;;;;;;;;;19.10;91.50;;;;;;6338775;22;19933;-91
2022/09/14 04:51:46;;;;;;;;;;;19.10;91.40;;;;;;6339348;22;19949;-91
2022/09/14 04:54:13;;;;;;;;;;;19.20;91.30;;;;;;6339341;22;19980;-92
2022/09/14 04:56:39;;;;;;;;;;;19.10;91.20;;;;;;6339342;22;19956;-92
2022/09/14 04:59:04;;;;;;;;;;;19.20;91.20;;;;;;6339286;22;20365;-91
2022/09/14 05:01:35;;;;;;;;;;;19.20;91.30;;;;;;6310028;22;20411;-93
2022/09/14 05:04:00;;;;;;;;;;;19.20;91.20;;;;;;6338541;22;20374;-93
2022/09/14 05:06:27;;;;;;;;;;;19.30;91.00;;;;;;6338919;22;19937;-92
2022/09/14 05:08:53;;;;;;;;;;;19.30;90.80;;;;;;6339450;22;19928;-92
2022/09/14 05:11:20;;;;;;;;;;;19.40;90.80;;;;;;6339277;22;19985;-92
2022/09/14 05:13:46;;;;;;;;;;;19.50;90.70;;;;;;6339328;22;19936;-92
2022/09/14 05:16:16;;;;;;;;;;;19.50;90.30;;;;;;6339031;22;19939;-92
2022/09/14 05:18:43;;;;;;;;;;;19.60;90.10;;;;;;6339140;22;19938;-92
2022/09/14 05:21:09;;;;;;;;;;;19.60;90.00;;;;;;6339077;22;19936;-92
2022/09/14 05:23:35;;;;;;;;;;;19.60;89.90;;;;;;6339070;22;19978;-91
2022/09/14 05:26:01;;;;;;;;;;;19.60;89.90;;;;;;6338950;22;20277;-92
2022/09/14 05:28:27;;;;;;;;;;;19.50;90.10;;;;;;6338509;22;19936;-92
2022/09/14 05:30:52;;;;;;;;;;;19.50;90.20;;;;;;6338453;22;19973;-92
2022/09/14 05:33:19;;;;;;;;;;;19.60;90.20;;;;;;6339064;22;20030;-92
2022/09/14 05:35:44;;;;;;;;;;;19.60;90.00;;;;;;6338266;22;20378;-92
2022/09/14 05:38:10;;;;;;;;;;;19.70;90.00;;;;;;6338684;22;19999;-92
2022/09/14 05:40:35;;;;;;;;;;;19.70;89.90;;;;;;6338677;22;20018;-93
2022/09/14 05:43:01;;;;;;;;;;;19.70;89.80;;;;;;6338783;22;19935;-92
2022/09/14 05:45:27;;;;;;;;;;;19.80;89.60;;;;;;6338350;22;19979;-92
2022/09/14 05:47:52;;;;;;;;;;;19.80;89.50;;;;;;6338357;22;19939;-92
2022/09/14 05:50:18;;;;;;;;;;;19.80;89.30;;;;;;6337209;22;19933;-91
2022/09/14 05:52:43;;;;;;;;;;;19.90;89.30;;;;;;6337746;22;20325;-92
2022/09/14 05:55:09;;;;;;;;;;;20.00;89.10;;;;;;6338239;22;20342;-92
2022/09/14 05:57:34;;;;;;;;;;;20.10;89.20;;;;;;6337405;22;20385;-91
2022/09/14 06:00:00;;;;;;;;;;;20.10;89.30;;;;;;6336908;22;19932;-92
2022/09/14 06:02:26;;;;;;;;;;;20.30;89.30;;;;;;6334385;22;19964;-93
2022/09/14 06:04:51;;;;;;;;;;;20.30;89.10;;;;;;6335552;22;20261;-92
2022/09/14 06:07:17;;;;;;;;;;;20.30;88.50;;;;;;6334853;22;20340;-93
2022/09/14 06:09:42;;;;;;;;;;;20.40;88.30;;;;;;6337895;22;20302;-92
2022/09/14 06:12:08;;;;;;;;;;;20.50;88.10;;;;;;6334618;22;19933;-92
2022/09/14 06:14:33;;;;;;;;;;;20.60;87.80;;;;;;6337935;22;19955;-93
2022/09/14 06:16:59;;;;;;;;;;;20.60;87.80;;;;;;6337364;22;20026;-93
2022/09/14 06:19:25;;;;;;;;;;;20.70;87.80;;;;;;6337080;22;20257;-93
2022/09/14 06:21:50;;;;;;;;;;;20.80;88.10;;;;;;6336944;22;19940;-93
2022/09/14 06:24:16;;;;;;;;;;;20.80;88.20;;;;;;6332784;22;19932;-92
2022/09/14 06:26:41;;;;;;;;;;;20.90;88.00;;;;;;6336968;22;20023;-93
2022/09/14 06:29:07;;;;;;;;;;;20.90;87.60;;;;;;6336439;22;19968;-92
2022/09/14 06:31:33;;;;;;;;;;;21.00;87.30;;;;;;6334821;22;19931;-92
2022/09/14 06:33:58;;;;;;;;;;;21.00;87.30;;;;;;6337175;22;19936;-93
2022/09/14 06:36:25;;;;;;;;;;;21.10;87.10;;;;;;6338105;22;20008;-93
2022/09/14 06:38:51;;;;;;;;;;;21.20;87.10;;;;;;6338215;22;19939;-93
2022/09/14 06:41:20;;;;;;;;;;;21.30;86.90;;;;;;6336234;22;20362;-93
2022/09/14 06:43:46;;;;;;;;;;;21.30;86.70;;;;;;6337920;22;19933;-93
2022/09/14 06:46:19;;;;;;;;;;;21.40;86.50;;;;;;6332387;22;19957;-93
2022/09/14 06:48:49;;;;;;;;;;;21.60;86.20;;;;;;6338480;22;20422;-93
2022/09/14 06:51:19;;;;;;;;;;;21.70;85.90;;;;;;6338228;22;20399;-93
2022/09/14 06:53:45;;;;;;;;;;;21.80;85.60;;;;;;6336931;22;20150;-93
2022/09/14 06:56:11;;;;;;;;;;;21.80;85.30;;;;;;6339056;22;20410;-93
2022/09/14 06:58:37;;;;;;;;;;;21.90;85.00;;;;;;6337921;22;19982;-93
2022/09/14 07:01:07;;;;;;;;;;;22.00;84.80;;;;;;6338407;22;19937;-93
2022/09/14 07:03:35;;;;;;;;;;;22.10;84.50;;;;;;6337295;22;20007;-92
2022/09/14 07:06:03;;;;;;;;;;;22.20;84.00;;;;;;6337081;22;19933;-92
2022/09/14 07:08:29;;;;;;;;;;;22.20;83.70;;;;;;6337751;22;19940;-92
2022/09/14 07:10:55;;;;;;;;;;;22.30;83.50;;;;;;6307543;22;20423;-93
2022/09/14 07:13:20;;;;;;;;;;;22.30;83.50;;;;;;6337734;22;19948;-93
2022/09/14 07:15:49;;;;;;;;;;;22.40;82.90;;;;;;6337703;22;19969;-92
2022/09/14 07:18:15;;;;;;;;;;;22.50;82.80;;;;;;6309445;22;20442;-93
2022/09/14 07:20:40;;;;;;;;;;;22.70;82.30;;;;;;6338252;22;20016;-92
2022/09/14 07:23:06;;;;;;;;;;;22.80;81.70;;;;;;6338039;22;19935;-92
2022/09/14 07:25:31;;;;;;;;;;;22.80;81.30;;;;;;6338229;22;19941;-93
2022/09/14 07:27:59;;;;;;;;;;;22.90;81.20;;;;;;6339002;22;19942;-92
2022/09/14 07:30:26;;;;;;;;;;;23.00;80.60;;;;;;6337270;22;19935;-93
2022/09/14 07:32:52;;;;;;;;;;;23.10;80.20;;;;;;6337893;22;19929;-93
2022/09/14 07:35:18;;;;;;;;;;;23.20;80.10;;;;;;6336182;22;20054;-93
2022/09/14 07:37:44;;;;;;;;;;;23.30;79.70;;;;;;6337984;22;19987;-92
2022/09/14 07:40:10;;;;;;;;;;;23.30;79.30;;;;;;6338158;22;20458;-92
2022/09/14 07:42:36;;;;;;;;;;;23.40;78.50;;;;;;6337619;22;19967;-92
2022/09/14 07:45:05;;;;;;;;;;;23.40;78.30;;;;;;6309778;22;19945;-93
2022/09/14 07:47:31;;;;;;;;;;;23.50;78.10;;;;;;6336354;22;19936;-92
2022/09/14 07:49:56;;;;;;;;;;;23.50;78.00;;;;;;6338331;22;20260;-93
2022/09/14 07:52:22;;;;;;;;;;;23.70;77.80;;;;;;6337586;22;20317;-92
2022/09/14 07:54:47;;;;;;;;;;;23.70;77.60;;;;;;6337173;22;19973;-93
2022/09/14 07:57:13;;;;;;;;;;;23.80;77.50;;;;;;6309768;22;19957;-92
2022/09/14 07:59:39;;;;;;;;;;;23.90;77.80;;;;;;6336717;22;19941;-92
2022/09/14 08:02:06;;;;;;;;;;;23.90;77.10;;;;;;6336749;22;19942;-92
2022/09/14 08:04:32;;;;;;;;;;;24.00;76.70;;;;;;6336612;22;19977;-92
2022/09/14 08:06:58;;;;;;;;;;;23.90;77.00;;;;;;6337646;22;20006;-92
2022/09/14 08:09:24;;;;;;;;;;;23.90;77.00;;;;;;6336195;22;20701;-92
2022/09/14 08:11:50;;;;;;;;;;;23.80;77.00;;;;;;6337496;22;20026;-92
2022/09/14 08:14:15;;;;;;;;;;;23.80;77.40;;;;;;6337780;22;19968;-92
2022/09/14 08:16:41;;;;;;;;;;;23.90;76.80;;;;;;6335805;22;20325;-92
2022/09/14 08:19:15;;;;;;;;;;;23.90;76.80;;;;;;6336998;22;19932;-92
2022/09/14 08:21:41;;;;;;;;;;;24.00;77.10;;;;;;6337441;22;20372;-92
2022/09/14 08:24:06;;;;;;;;;;;24.10;77.10;;;;;;6335478;22;19942;-92
2022/09/14 08:26:35;;;;;;;;;;;24.20;77.60;;;;;;6336516;22;19993;-92
2022/09/14 08:29:01;;;;;;;;;;;24.20;77.30;;;;;;6336157;22;19966;-93
2022/09/14 08:31:27;;;;;;;;;;;24.30;76.60;;;;;;6338213;22;20030;-93
2022/09/14 08:33:55;;;;;;;;;;;24.40;76.50;;;;;;6337240;22;20303;-93
2022/09/14 08:36:22;;;;;;;;;;;24.50;76.40;;;;;;6338819;22;19965;-93
2022/09/14 08:38:47;;;;;;;;;;;24.70;75.80;;;;;;6338179;22;19945;-93
2022/09/14 08:41:30;;;;;;;;;;;24.80;75.30;;;;;;6338550;22;19936;-93
2022/09/14 08:44:15;;;;;;;;;;;24.80;74.50;;;;;;6339108;22;19987;-94
2022/09/14 08:46:43;;;;;;;;;;;25.00;75.20;;;;;;6338964;22;19948;-93
2022/09/14 08:49:12;;;;;;;;;;;25.00;74.00;;;;;;6339076;22;19982;-93
2022/09/14 08:51:38;;;;;;;;;;;25.20;74.30;;;;;;6338577;22;20032;-94
2022/09/14 08:54:04;;;;;;;;;;;25.40;73.60;;;;;;6310707;22;20011;-93
2022/09/14 08:56:35;;;;;;;;;;;25.60;72.70;;;;;;6338083;22;19999;-93
2022/09/14 08:59:25;;;;;;;;;;;25.70;72.60;;;;;;6337971;22;19937;-93
2022/09/14 09:02:04;;;;;;;;;;;25.80;72.90;;;;;;6337917;22;19942;-93
2022/09/14 09:04:44;;;;;;;;;;;25.80;72.20;;;;;;6339412;22;20319;-93
2022/09/14 09:07:21;;;;;;;;;;;25.80;72.60;;;;;;6339833;22;19939;-93
2022/09/14 09:09:48;;;;;;;;;;;25.80;72.40;;;;;;6339535;22;20234;-93
2022/09/14 09:12:16;;;;;;;;;;;25.70;72.30;;;;;;6339445;22;19988;-93
2022/09/14 09:14:44;;;;;;;;;;;25.60;73.20;;;;;;6339399;22;19942;-93
2022/09/14 09:17:16;;;;;;;;;;;25.50;72.60;;;;;;6338497;22;19953;-93
2022/09/14 09:20:08;;;;;;;;;;;25.50;73.60;;;;;;6338650;22;19932;-92
2022/09/14 09:22:53;;;;;;;;;;;25.50;73.60;;;;;;6329650;22;19942;-92
2022/09/14 09:25:22;;;;;;;;;;;25.50;73.30;;;;;;6335957;22;20087;-92
2022/09/14 09:27:48;;;;;;;;;;;25.40;73.80;;;;;;6337029;22;19966;-92
2022/09/14 09:30:14;;;;;;;;;;;25.40;74.00;;;;;;6336900;22;20348;-91
2022/09/14 09:32:40;;;;;;;;;;;25.60;73.10;;;;;;6336690;22;19982;-91
2022/09/14 09:35:05;;;;;;;;;;;25.70;72.90;;;;;;6335847;22;20266;-92
2022/09/14 09:37:33;;;;;;;;;;;25.80;72.70;;;;;;6337071;22;20282;-91
2022/09/14 09:39:58;;;;;;;;;;;25.80;72.80;;;;;;6336228;22;19934;-93
2022/09/14 09:42:25;;;;;;;;;;;25.70;71.40;;;;;;6337462;22;19938;-92
2022/09/14 09:44:52;;;;;;;;;;;25.60;72.20;;;;;;6338602;22;20370;-92
2022/09/14 09:47:24;;;;;;;;;;;25.80;72.00;;;;;;6338101;22;20399;-92
2022/09/14 09:49:56;;;;;;;;;;;25.80;72.10;;;;;;6335930;22;19943;-92
2022/09/14 09:52:21;;;;;;;;;;;25.80;71.10;;;;;;6338175;22;19951;-92
2022/09/14 09:54:52;;;;;;;;;;;25.60;71.70;;;;;;6337659;22;19972;-92
2022/09/14 09:57:28;;;;;;;;;;;25.50;72.80;;;;;;6338143;22;19957;-92
2022/09/14 10:00:21;;;;;;;;;;;25.50;72.60;;;;;;6337874;22;19982;-92
2022/09/14 10:02:47;;;;;;;;;;;25.50;71.60;;;;;;6332048;22;19943;-92
2022/09/14 10:05:12;;;;;;;;;;;25.40;72.70;;;;;;6337961;22;20233;-93
2022/09/14 10:07:40;;;;;;;;;;;25.60;72.90;;;;;;6337993;22;19954;-92
2022/09/14 10:10:09;;;;;;;;;;;25.70;71.30;;;;;;6338249;22;20585;-92
2022/09/14 10:12:37;;;;;;;;;;;25.70;71.40;;;;;;6340817;22;19929;-92
2022/09/14 10:15:17;;;;;;;;;;;25.80;71.50;;;;;;6340509;22;19933;-92
2022/09/14 10:17:54;;;;;;;;;;;25.70;71.40;;;;;;6340574;22;19957;-92
2022/09/14 10:20:24;;;;;;;;;;;25.60;71.80;;;;;;6340913;22;20362;-92
2022/09/14 10:22:49;;;;;;;;;;;25.80;71.60;;;;;;6340880;22;19938;-92
2022/09/14 10:25:16;;;;;;;;;;;25.80;71.50;;;;;;6340523;22;19939;-92
2022/09/14 10:27:53;;;;;;;;;;;25.80;71.70;;;;;;6340628;22;19970;-92
2022/09/14 10:30:23;;;;;;;;;;;25.80;71.70;;;;;;6340630;22;20361;-92
2022/09/14 10:32:59;;;;;;;;;;;25.80;70.90;;;;;;6340768;22;20009;-92
2022/09/14 10:35:30;;;;;;;;;;;26.00;70.90;;;;;;6340217;22;19935;-92
2022/09/14 10:37:56;;;;;;;;;;;26.20;71.50;;;;;;6340155;22;19950;-92
2022/09/14 10:40:52;;;;;;;;;;;26.60;71.40;;;;;;6340556;22;19940;-92
2022/09/14 10:43:36;;;;;;;;;;;26.70;69.20;;;;;;6308105;22;20360;-92
2022/09/14 10:46:03;;;;;;;;;;;26.90;69.10;;;;;;6340271;22;19937;-92
2022/09/14 10:48:28;;;;;;;;;;;26.90;68.00;;;;;;6340283;22;20323;-92
2022/09/14 10:51:03;;;;;;;;;;;26.80;69.10;;;;;;6339794;22;19946;-92
2022/09/14 10:53:49;;;;;;;;;;;26.90;68.20;;;;;;6340250;22;19937;-92
2022/09/14 10:56:14;;;;;;;;;;;27.00;67.90;;;;;;6339267;22;20051;-92
2022/09/14 10:58:43;;;;;;;;;;;27.20;67.10;;;;;;6339455;22;20598;-92
2022/09/14 11:01:28;;;;;;;;;;;27.40;66.60;;;;;;6340126;22;19942;-93
2022/09/14 11:04:05;;;;;;;;;;;27.40;63.50;;;;;;6340414;22;19932;-92
2022/09/14 11:06:36;;;;;;;;;;;27.70;64.00;;;;;;6340184;22;19930;-92
2022/09/14 11:09:05;;;;;;;;;;;28.10;61.10;;;;;;6339989;22;20342;-93
2022/09/14 11:11:40;;;;;;;;;;;28.40;60.00;;;;;;6340225;22;20005;-92
2022/09/14 11:14:12;;;;;;;;;;;28.50;59.30;;;;;;6340133;22;19948;-92
2022/09/14 11:16:46;;;;;;;;;;;28.70;59.60;;;;;;6338962;22;20028;-92
2022/09/14 11:19:21;;;;;;;;;;;28.70;58.30;;;;;;6339116;22;19958;-92
2022/09/14 11:22:01;;;;;;;;;;;28.50;58.70;;;;;;6340299;22;19940;-92
2022/09/14 11:24:36;;;;;;;;;;;28.30;58.20;;;;;;6339299;22;19933;-92
2022/09/14 11:27:05;;;;;;;;;;;28.20;58.30;;;;;;6339458;22;20013;-93
2022/09/14 11:29:33;;;;;;;;;;;28.20;58.00;;;;;;6339943;22;19942;-92
2022/09/14 11:32:04;;;;;;;;;;;28.40;58.20;;;;;;6339578;22;19963;-94
2022/09/14 11:34:32;;;;;;;;;;;28.70;58.00;;;;;;6336543;22;19938;-92
2022/09/14 11:37:17;;;;;;;;;;;28.90;57.30;;;;;;6335419;22;19964;-91
2022/09/14 11:39:52;;;;;;;;;;;28.80;55.60;;;;;;6308598;22;20289;-91
2022/09/14 11:42:21;;;;;;;;;;;29.00;56.20;;;;;;6338658;22;19959;-91
2022/09/14 11:44:49;;;;;;;;;;;28.80;56.80;;;;;;6338357;22;19964;-91
2022/09/14 11:47:17;;;;;;;;;;;28.90;54.60;;;;;;6337931;22;20009;-91
2022/09/14 11:49:48;;;;;;;;;;;28.90;54.60;;;;;;6337311;22;19997;-91
2022/09/14 11:52:25;;;;;;;;;;;29.00;55.40;;;;;;6338854;22;19947;-91
2022/09/14 11:54:51;;;;;;;;;;;28.90;54.20;;;;;;6338020;22;20047;-90
2022/09/14 11:57:17;;;;;;;;;;;29.00;53.80;;;;;;6337133;22;20310;-90
2022/09/14 11:59:43;;;;;;;;;;;28.90;53.40;;;;;;6339035;22;19940;-91
2022/09/14 12:02:24;;;;;;;;;;;29.30;53.60;;;;;;6338973;22;19959;-91
2022/09/14 12:05:09;;;;;;;;;;;29.70;52.70;;;;;;6338589;22;20732;-91
2022/09/14 12:07:38;;;;;;;;;;;30.20;51.50;;;;;;6311375;22;19988;-91
2022/09/14 12:10:13;;;;;;;;;;;30.60;50.50;;;;;;6339295;22;19933;-90
2022/09/14 12:12:40;;;;;;;;;;;30.60;50.80;;;;;;6337948;22;19980;-91
2022/09/14 12:15:24;;;;;;;;;;;30.40;50.90;;;;;;6337444;22;19978;-90
2022/09/14 12:17:50;;;;;;;;;;;30.20;50.60;;;;;;6337843;22;19962;-90
2022/09/14 12:20:18;;;;;;;;;;;30.10;51.80;;;;;;6336504;22;19933;-90
2022/09/14 12:22:44;;;;;;;;;;;30.20;52.50;;;;;;6338147;22;19937;-91
2022/09/14 12:25:17;;;;;;;;;;;30.20;51.00;;;;;;6338176;22;19935;-90
2022/09/14 12:27:43;;;;;;;;;;;30.20;52.20;;;;;;6337062;22;19960;-90
2022/09/14 12:30:27;;;;;;;;;;;30.40;51.70;;;;;;6337086;22;19940;-90
2022/09/14 12:32:53;;;;;;;;;;;30.00;50.20;;;;;;6337029;22;19967;-91
2022/09/14 12:35:31;;;;;;;;;;;29.30;52.90;;;;;;6337553;22;19926;-91
2022/09/14 12:37:56;;;;;;;;;;;29.30;52.40;;;;;;6309335;22;20027;-91
2022/09/14 12:40:33;;;;;;;;;;;29.40;52.50;;;;;;6339140;22;19937;-90
2022/09/14 12:43:17;;;;;;;;;;;29.60;50.50;;;;;;6337242;22;19951;-90
2022/09/14 12:45:50;;;;;;;;;;;29.80;49.60;;;;;;6336944;22;19930;-90
2022/09/14 12:48:38;;;;;;;;;;;30.10;49.50;;;;;;6338502;22;19946;-91
2022/09/14 12:51:04;;;;;;;;;;;30.30;49.60;;;;;;6238717;22;20276;-91
2022/09/14 12:53:30;;;;;;;;;;;30.50;48.50;;;;;;6336743;22;19947;-91
2022/09/14 12:56:00;;;;;;;;;;;30.20;49.00;;;;;;6337554;22;19964;-91
2022/09/14 12:58:26;;;;;;;;;;;29.90;50.70;;;;;;6337412;22;19985;-91
2022/09/14 13:00:58;;;;;;;;;;;29.70;52.10;;;;;;6337098;22;19978;-91
2022/09/14 13:03:26;;;;;;;;;;;29.50;51.90;;;;;;6336536;22;19938;-91
2022/09/14 13:05:52;;;;;;;;;;;29.60;52.40;;;;;;6338248;22;19933;-91
2022/09/14 13:08:21;;;;;;;;;;;29.80;51.00;;;;;;6337729;22;20311;-91
2022/09/14 13:10:48;;;;;;;;;;;30.00;50.90;;;;;;6336611;22;19957;-91
2022/09/14 13:13:16;;;;;;;;;;;30.00;50.20;;;;;;6336207;22;20053;-91
2022/09/14 13:16:01;;;;;;;;;;;29.70;50.90;;;;;;6337244;22;20230;-91
2022/09/14 13:18:28;;;;;;;;;;;29.40;52.10;;;;;;6335485;22;19959;-91
2022/09/14 13:20:55;;;;;;;;;;;29.20;53.00;;;;;;6337309;22;19983;-91
2022/09/14 13:23:28;;;;;;;;;;;29.00;52.70;;;;;;6335903;22;19939;-91
2022/09/14 13:25:54;;;;;;;;;;;29.10;53.60;;;;;;6337211;22;20355;-91
2022/09/14 13:28:20;;;;;;;;;;;28.90;53.80;;;;;;6336837;22;19984;-91
2022/09/14 13:30:58;;;;;;;;;;;28.90;54.60;;;;;;6336830;22;20267;-91
2022/09/14 13:33:24;;;;;;;;;;;28.90;54.40;;;;;;6330933;22;19954;-91
2022/09/14 13:35:55;;;;;;;;;;;28.90;54.20;;;;;;6336996;22;20069;-91
2022/09/14 13:38:24;;;;;;;;;;;29.30;53.40;;;;;;6337427;22;19956;-91
2022/09/14 13:40:51;;;;;;;;;;;29.90;52.50;;;;;;6336395;22;19990;-91
2022/09/14 13:43:18;;;;;;;;;;;30.40;50.60;;;;;;6308405;22;19938;-91
2022/09/14 13:45:44;;;;;;;;;;;30.70;48.60;;;;;;6336083;22;19932;-91
2022/09/14 13:48:12;;;;;;;;;;;31.20;48.90;;;;;;6335465;22;20024;-91
2022/09/14 13:50:42;;;;;;;;;;;31.70;47.60;;;;;;6333925;22;20495;-91
2022/09/14 13:53:27;;;;;;;;;;;31.40;47.70;;;;;;6337314;22;19929;-92
2022/09/14 13:55:52;;;;;;;;;;;31.50;47.50;;;;;;6334746;22;20015;-91
2022/09/14 13:58:18;;;;;;;;;;;31.00;47.70;;;;;;6334786;22;20371;-91
2022/09/14 14:00:58;;;;;;;;;;;30.20;50.60;;;;;;6308162;22;19936;-91
2022/09/14 14:03:25;;;;;;;;;;;29.70;52.00;;;;;;6336394;22;19934;-91
2022/09/14 14:05:51;;;;;;;;;;;29.50;53.00;;;;;;6337419;22;19943;-91
2022/09/14 14:08:22;;;;;;;;;;;29.50;52.40;;;;;;6337997;22;19940;-91
2022/09/14 14:10:48;;;;;;;;;;;29.70;52.80;;;;;;6337153;22;19938;-91
2022/09/14 14:13:23;;;;;;;;;;;30.40;51.20;;;;;;6308623;22;19965;-91
2022/09/14 14:15:49;;;;;;;;;;;30.80;49.50;;;;;;6335071;22;19939;-91
2022/09/14 14:18:30;;;;;;;;;;;31.30;48.10;;;;;;6337656;22;19990;-91
2022/09/14 14:21:12;;;;;;;;;;;31.90;47.60;;;;;;6335886;22;19942;-92
2022/09/14 14:23:38;;;;;;;;;;;31.90;46.20;;;;;;6335856;22;20394;-92
2022/09/14 14:26:08;;;;;;;;;;;31.80;46.50;;;;;;6337675;22;19939;-91
2022/09/14 14:28:34;;;;;;;;;;;32.20;46.10;;;;;;6336022;22;19930;-91